Time;durP1;ratioP1;P1;durP2;ratioP2;P2;SDS_P1;SDS_P2;PMS_P1;PMS_P2;Temp;Humidity;BMP_temperature;BMP_pressure;BME280_temperature;BME280_humidity;BME280_pressure;Samples;Min_cycle;Max_cycle;Signal;HPM_P1;HPM_P2
2022/01/30 00:01:31;;;;;;;20.05;4.85;;;;;;;8.20;64.50;102347.88;4993120;28;20034;-88
2022/01/30 00:03:56;;;;;;;13.23;3.80;;;;;;;8.20;64.80;102357.50;4993063;28;20520;-88
2022/01/30 00:06:23;;;;;;;14.85;3.63;;;;;;;7.98;65.61;102347.59;4992347;28;20544;-88
2022/01/30 00:08:49;;;;;;;21.15;4.47;;;;;;;7.93;66.27;102344.22;4992818;28;20108;-88
2022/01/30 00:11:20;;;;;;;26.40;4.82;;;;;;;7.93;67.07;102337.22;4993072;28;20072;-88
2022/01/30 00:13:45;;;;;;;30.40;4.82;;;;;;;8.04;66.69;102336.13;4993575;28;20473;-88
2022/01/30 00:16:11;;;;;;;28.80;4.97;;;;;;;7.98;66.15;102333.63;4993394;28;20050;-88
2022/01/30 00:18:53;;;;;;;20.30;4.32;;;;;;;7.95;66.93;102331.97;5009151;28;20026;-88
2022/01/30 00:21:33;;;;;;;31.52;5.32;;;;;;;7.87;65.67;102339.16;5016692;28;20337;-88
2022/01/30 00:24:11;;;;;;;13.60;3.38;;;;;;;7.81;66.04;102348.03;5013059;28;20030;-87
2022/01/30 00:26:39;;;;;;;15.57;3.22;;;;;;;7.78;66.00;102353.34;5015898;28;20010;-88
2022/01/30 00:29:04;;;;;;;13.85;3.70;;;;;;;7.75;65.91;102359.50;5016184;28;20014;-87
2022/01/30 00:31:31;;;;;;;23.02;3.95;;;;;;;7.74;66.31;102349.94;5011279;28;20035;-88
2022/01/30 00:33:57;;;;;;;19.05;4.18;;;;;;;7.84;66.26;102339.22;5016095;28;20050;-88
2022/01/30 00:36:23;;;;;;;18.08;3.88;;;;;;;7.83;65.97;102341.00;5009434;28;20038;-88
2022/01/30 00:38:48;;;;;;;22.30;3.70;;;;;;;7.75;66.11;102356.88;4993913;28;20185;-88
2022/01/30 00:41:14;;;;;;;21.33;3.92;;;;;;;7.72;65.76;102364.81;4994646;28;20497;-89
2022/01/30 00:43:39;;;;;;;18.10;3.53;;;;;;;7.70;65.92;102368.34;4994480;28;20022;-88
2022/01/30 00:46:05;;;;;;;13.70;3.42;;;;;;;7.65;65.61;102347.53;4993588;28;20030;-88
2022/01/30 00:48:30;;;;;;;22.80;4.18;;;;;;;7.57;66.46;102330.34;4993875;28;20113;-88
2022/01/30 00:50:55;;;;;;;19.52;4.00;;;;;;;7.60;65.89;102325.03;4993240;28;20379;-88
2022/01/30 00:53:21;;;;;;;18.92;4.22;;;;;;;7.59;65.87;102341.63;4992950;28;20033;-89
2022/01/30 00:55:46;;;;;;;15.95;3.33;;;;;;;7.51;65.83;102347.88;4993372;28;20034;-88
2022/01/30 00:58:13;;;;;;;15.68;3.30;;;;;;;7.62;66.09;102352.88;4992963;28;20026;-88
2022/01/30 01:00:39;;;;;;;17.42;3.08;;;;;;;7.54;65.91;102344.31;4993394;28;20034;-89
2022/01/30 01:03:05;;;;;;;18.45;3.85;;;;;;;7.51;65.68;102342.66;4992707;28;20034;-89
2022/01/30 01:05:33;;;;;;;19.85;3.72;;;;;;;7.53;66.05;102343.47;4992529;28;20453;-89
2022/01/30 01:08:02;;;;;;;17.75;3.42;;;;;;;7.53;66.63;102346.09;4992646;28;20045;-88
2022/01/30 01:10:37;;;;;;;15.88;3.17;;;;;;;7.61;66.34;102356.34;4992832;28;20035;-88
2022/01/30 01:23:45;;;;;;;14.95;3.38;;;;;;;7.37;66.12;102347.34;4992642;28;20053;-89
2022/01/30 01:26:12;;;;;;;13.30;3.65;;;;;;;7.33;66.93;102354.41;4992547;28;20030;-88
2022/01/30 01:28:38;;;;;;;23.40;4.20;;;;;;;7.33;66.96;102354.41;4992491;28;20510;-88
2022/01/30 01:31:04;;;;;;;16.65;3.72;;;;;;;7.21;67.33;102359.03;4992365;28;20034;-88
2022/01/30 01:36:13;;;;;;;13.73;3.55;;;;;;;7.18;66.56;102359.97;4995877;28;20161;-89
2022/01/30 01:38:39;;;;;;;19.70;3.67;;;;;;;6.99;66.22;102362.16;4995710;28;20050;-88
2022/01/30 01:41:04;;;;;;;14.48;3.70;;;;;;;6.88;66.37;102351.06;4995397;28;20081;-89
2022/01/30 01:43:30;;;;;;;14.82;3.50;;;;;;;6.89;66.04;102358.00;4995599;28;20281;-88
2022/01/30 01:45:58;;;;;;;16.63;3.22;;;;;;;6.98;65.77;102365.63;4995535;28;20034;-88
2022/01/30 01:48:23;;;;;;;13.45;3.13;;;;;;;7.01;66.10;102362.09;4995989;28;20455;-88
2022/01/30 01:50:54;;;;;;;21.13;3.70;;;;;;;7.00;66.48;102365.63;4995759;28;20029;-88
2022/01/30 01:53:23;;;;;;;12.15;3.33;;;;;;;6.93;66.37;102359.63;4995649;28;20023;-88
2022/01/30 01:55:49;;;;;;;16.35;4.40;;;;;;;6.86;65.49;102363.28;4995489;28;20038;-89
2022/01/30 01:58:14;;;;;;;14.98;3.45;;;;;;;6.88;65.61;102358.91;4995671;28;20029;-88
2022/01/30 02:00:40;;;;;;;15.68;3.30;;;;;;;6.82;65.45;102348.59;4995546;28;20451;-88
2022/01/30 02:03:06;;;;;;;18.85;4.05;;;;;;;6.69;66.74;102346.22;4995014;28;20026;-89
2022/01/30 02:05:34;;;;;;;19.67;3.72;;;;;;;6.70;66.60;102375.81;4995201;28;20081;-88
2022/01/30 02:10:46;;;;;;;18.63;3.83;;;;;;;6.62;66.08;102369.88;4994989;28;20118;-88
2022/01/30 02:24:59;;;;;;;20.40;3.50;;;;;;;6.41;67.14;102361.56;4982746;28;20547;-88
2022/01/30 02:27:27;;;;;;;13.80;3.47;;;;;;;6.58;67.04;102363.00;4994787;28;20477;-88
2022/01/30 02:29:53;;;;;;;18.00;3.25;;;;;;;6.68;67.38;102362.78;4993499;28;20022;-88
2022/01/30 02:32:19;;;;;;;15.05;3.85;;;;;;;6.69;67.43;102353.19;4994422;28;20029;-88
2022/01/30 02:34:45;;;;;;;11.65;2.47;;;;;;;6.64;67.25;102348.06;4994997;28;20109;-88
2022/01/30 02:37:13;;;;;;;16.48;3.28;;;;;;;6.65;67.16;102365.44;4994716;28;20108;-88
2022/01/30 02:39:38;;;;;;;12.02;2.85;;;;;;;6.70;67.55;102371.44;4994707;28;20049;-89
2022/01/30 02:42:04;;;;;;;13.40;2.90;;;;;;;6.64;67.92;102368.94;4994290;28;20457;-88
2022/01/30 02:47:01;;;;;;;15.43;3.20;;;;;;;6.63;66.90;102356.78;4994600;28;20082;-88
2022/01/30 02:49:43;;;;;;;25.35;4.45;;;;;;;6.62;67.22;102357.69;4994467;28;20022;-88
2022/01/30 02:52:10;;;;;;;20.13;5.88;;;;;;;6.59;67.64;102346.44;4994491;28;20031;-88
2022/01/30 02:54:36;;;;;;;10.52;2.80;;;;;;;6.64;67.77;102366.34;4993845;28;20041;-88
2022/01/30 02:57:02;;;;;;;11.10;2.45;;;;;;;6.71;67.70;102359.22;4994079;28;20034;-88
2022/01/30 02:59:27;;;;;;;16.27;4.80;;;;;;;6.70;66.99;102345.34;4994170;28;20031;-88
2022/01/30 03:01:53;;;;;;;11.85;2.50;;;;;;;6.67;67.16;102348.00;4994327;28;20452;-88
2022/01/30 03:04:19;;;;;;;13.35;3.03;;;;;;;6.59;67.49;102349.06;4994380;28;20022;-88
2022/01/30 03:06:45;;;;;;;15.70;3.30;;;;;;;6.61;67.49;102342.91;4994472;28;20062;-88
2022/01/30 03:09:11;;;;;;;11.50;2.35;;;;;;;6.58;67.95;102348.19;4993823;28;20037;-88
2022/01/30 03:11:37;;;;;;;16.02;3.30;;;;;;;6.62;67.04;102344.63;4993928;28;20034;-88
2022/01/30 03:14:04;;;;;;;19.45;3.53;;;;;;;6.55;67.43;102343.88;4994125;28;20073;-88
2022/01/30 03:16:30;;;;;;;17.80;3.33;;;;;;;6.55;67.79;102338.66;4993853;28;20053;-88
2022/01/30 03:18:55;;;;;;;15.65;3.60;;;;;;;6.51;67.68;102330.94;4993697;28;20030;-88
2022/01/30 03:21:21;;;;;;;15.60;2.70;;;;;;;6.51;67.92;102337.00;4993697;28;20441;-88
2022/01/30 03:23:47;;;;;;;10.52;2.28;;;;;;;6.52;67.74;102346.56;4992264;28;20081;-88
2022/01/30 03:26:13;;;;;;;13.57;2.85;;;;;;;6.52;67.76;102337.88;4993302;28;20105;-88
2022/01/30 03:28:41;;;;;;;18.83;3.03;;;;;;;6.45;67.29;102325.84;4993415;28;20534;-88
2022/01/30 03:31:10;;;;;;;19.13;3.67;;;;;;;6.54;67.46;102323.06;4993461;28;20037;-88
2022/01/30 03:33:37;;;;;;;13.82;3.17;;;;;;;6.56;67.70;102323.88;4992242;28;20065;-88
2022/01/30 03:36:03;;;;;;;14.07;2.78;;;;;;;6.58;67.34;102322.09;4993621;28;20026;-88
2022/01/30 03:38:29;;;;;;;15.10;3.33;;;;;;;6.57;67.21;102317.75;4993547;28;20077;-88
2022/01/30 03:40:54;;;;;;;8.15;2.35;;;;;;;6.61;67.56;102316.81;4992609;28;20026;-88
2022/01/30 03:43:21;;;;;;;16.75;2.75;;;;;;;6.64;67.27;102324.56;4993248;28;20041;-88
2022/01/30 03:45:47;;;;;;;16.00;3.67;;;;;;;6.54;67.19;102326.53;4993187;28;20034;-88
2022/01/30 03:48:14;;;;;;;11.45;2.30;;;;;;;6.49;67.53;102323.13;4992737;28;20022;-88
2022/01/30 03:50:40;;;;;;;9.32;2.22;;;;;;;6.46;67.24;102323.22;4993163;28;20388;-88
2022/01/30 03:53:05;;;;;;;13.90;2.95;;;;;;;6.40;67.28;102325.06;4993044;28;20033;-88
2022/01/30 03:55:31;;;;;;;7.78;2.63;;;;;;;6.43;66.69;102325.00;4992457;28;20034;-88
2022/01/30 03:57:56;;;;;;;7.95;2.22;;;;;;;6.44;66.79;102331.97;4993041;28;20026;-88
2022/01/30 04:00:23;;;;;;;11.45;2.78;;;;;;;6.44;66.59;102326.75;4992918;28;20037;-88
2022/01/30 04:02:48;;;;;;;13.88;2.70;;;;;;;6.43;66.83;102327.63;4992946;28;20015;-88
2022/01/30 04:05:15;;;;;;;11.52;2.40;;;;;;;6.40;66.74;102330.28;4993044;28;20030;-88
2022/01/30 04:07:41;;;;;;;8.27;2.35;;;;;;;6.38;66.63;102334.66;4992642;28;20031;-88
2022/01/30 04:10:07;;;;;;;12.20;2.47;;;;;;;6.31;66.01;102334.78;4992703;28;20030;-88
2022/01/30 04:12:33;;;;;;;10.40;2.75;;;;;;;6.32;66.30;102336.53;4993053;28;20049;-88
2022/01/30 04:14:59;;;;;;;15.13;2.65;;;;;;;6.12;66.88;102331.69;4992853;28;20460;-88
2022/01/30 04:17:25;;;;;;;17.27;2.40;;;;;;;6.11;67.53;102344.75;4993303;28;20469;-88
2022/01/30 04:19:50;;;;;;;13.15;3.65;;;;;;;6.22;67.50;102361.06;4993035;28;20058;-88
2022/01/30 04:22:16;;;;;;;13.95;2.90;;;;;;;6.10;66.83;102354.34;4992740;28;20034;-88
2022/01/30 04:24:41;;;;;;;13.52;2.58;;;;;;;6.12;66.78;102344.72;4992550;28;20035;-88
2022/01/30 04:27:07;;;;;;;17.80;2.70;;;;;;;6.16;66.54;102342.91;4992744;28;20018;-87
2022/01/30 04:29:33;;;;;;;16.83;3.20;;;;;;;5.84;67.70;102348.66;4992524;28;20018;-88
2022/01/30 04:31:58;;;;;;;13.95;2.35;;;;;;;5.71;68.63;102363.66;4992071;28;20459;-88
2022/01/30 04:34:25;;;;;;;13.40;2.78;;;;;;;6.02;68.15;102368.38;4992582;28;20113;-88
2022/01/30 04:39:42;;;;;;;11.52;2.65;;;;;;;6.11;66.96;102347.34;4992845;28;20080;-88
2022/01/30 05:07:47;;;;;;;13.02;2.38;;;;;;;6.00;67.05;102350.13;5013492;28;20339;-86
2022/01/30 05:10:13;;;;;;;7.72;2.30;;;;;;;5.98;66.78;102354.53;5010358;28;20101;-87
2022/01/30 05:12:50;;;;;;;12.73;3.33;;;;;;;6.00;66.84;102346.69;5002401;28;20479;-87
2022/01/30 05:15:18;;;;;;;21.85;2.92;;;;;;;5.95;67.04;102345.03;4999606;28;20061;-86
2022/01/30 05:17:44;;;;;;;10.50;2.45;;;;;;;5.98;66.67;102351.91;5000227;28;20487;-86
2022/01/30 05:20:10;;;;;;;17.73;2.58;;;;;;;5.76;66.87;102356.59;4997290;28;20037;-87
2022/01/30 05:22:36;;;;;;;12.23;2.40;;;;;;;5.79;66.61;102350.50;4996836;28;20543;-87
2022/01/30 05:25:02;;;;;;;15.25;3.28;;;;;;;5.90;66.49;102357.22;4996766;28;20034;-86
2022/01/30 05:27:28;;;;;;;11.35;2.33;;;;;;;5.87;66.46;102349.47;4997249;28;20381;-87
2022/01/30 05:29:53;;;;;;;13.20;2.72;;;;;;;5.86;66.27;102355.56;4996554;28;20030;-86
2022/01/30 05:32:19;;;;;;;17.27;2.58;;;;;;;5.82;65.31;102346.06;4995233;28;20030;-87
2022/01/30 05:34:44;;;;;;;14.18;2.55;;;;;;;5.85;65.74;102350.41;4996311;28;20044;-87
2022/01/30 05:37:11;;;;;;;11.93;2.10;;;;;;;5.81;65.96;102365.22;4995923;28;20022;-87
2022/01/30 05:39:37;;;;;;;11.30;2.08;;;;;;;5.87;65.67;102365.13;4996393;28;20070;-86
2022/01/30 05:42:03;;;;;;;18.90;2.88;;;;;;;5.85;64.89;102356.47;4995565;28;20062;-87
2022/01/30 05:44:43;;;;;;;12.55;2.30;;;;;;;5.76;65.70;102346.19;4996187;28;20109;-87
2022/01/30 05:47:14;;;;;;;17.42;3.13;;;;;;;5.77;66.01;102368.78;4995322;28;20060;-87
2022/01/30 05:49:40;;;;;;;9.93;2.30;;;;;;;5.75;65.61;102368.78;4995712;28;20023;-87
2022/01/30 05:52:06;;;;;;;13.18;2.45;;;;;;;5.60;65.46;102365.56;4995841;28;20031;-87
2022/01/30 05:54:31;;;;;;;14.35;3.03;;;;;;;5.62;65.37;102369.88;4994565;28;20029;-87
2022/01/30 05:56:56;;;;;;;11.20;2.28;;;;;;;5.66;65.50;102366.31;4995313;28;20037;-87
2022/01/30 05:59:22;;;;;;;13.52;2.85;;;;;;;5.70;65.61;102377.56;4995704;28;20038;-87
2022/01/30 06:01:47;;;;;;;15.55;2.88;;;;;;;5.68;65.60;102385.41;4995332;28;20045;-87
2022/01/30 06:04:12;;;;;;;10.70;2.28;;;;;;;5.69;65.34;102373.25;4995135;28;20022;-87
2022/01/30 06:06:47;;;;;;;11.77;2.85;;;;;;;5.79;65.23;102376.56;4995079;28;20189;-86
2022/01/30 06:11:50;;;;;;;13.55;2.88;;;;;;;5.73;65.94;102382.75;4992005;28;20515;-87
2022/01/30 06:14:19;;;;;;;12.60;2.63;;;;;;;5.76;65.74;102361.81;4995342;28;20121;-87
2022/01/30 06:16:45;;;;;;;12.98;2.20;;;;;;;5.65;65.64;102364.63;4993337;28;20018;-87
2022/01/30 06:19:10;;;;;;;12.20;2.58;;;;;;;5.67;66.28;102380.25;4975822;28;20073;-87
2022/01/30 06:21:36;;;;;;;11.65;2.45;;;;;;;5.69;66.24;102378.47;4975480;28;20033;-87
2022/01/30 06:24:02;;;;;;;12.85;2.25;;;;;;;5.54;66.73;102377.81;4975661;28;20528;-87
2022/01/30 06:26:28;;;;;;;11.93;2.30;;;;;;;5.49;67.05;102371.81;4987047;28;20107;-87
2022/01/30 06:28:53;;;;;;;7.82;2.67;;;;;;;5.67;66.90;102383.69;4995326;28;20065;-87
2022/01/30 06:31:18;;;;;;;8.20;2.05;;;;;;;5.63;66.92;102375.94;4994796;28;20030;-87
2022/01/30 06:33:44;;;;;;;10.18;2.00;;;;;;;5.69;66.83;102376.72;4994924;28;20018;-87
2022/01/30 06:36:10;;;;;;;15.43;2.35;;;;;;;5.65;67.19;102379.41;4994150;28;20508;-87
2022/01/30 06:38:36;;;;;;;13.30;2.42;;;;;;;5.65;67.57;102389.81;4994678;28;20503;-88
2022/01/30 06:41:01;;;;;;;16.02;2.67;;;;;;;5.58;67.37;102383.84;4994716;28;20094;-88
2022/01/30 06:43:26;;;;;;;17.40;3.10;;;;;;;5.64;67.56;102365.50;4994361;28;20034;-87
2022/01/30 06:45:52;;;;;;;11.80;2.47;;;;;;;5.71;66.72;102361.91;4993302;28;20038;-87
2022/01/30 06:48:20;;;;;;;16.25;2.65;;;;;;;5.70;67.02;102362.78;4994777;28;20026;-87
2022/01/30 06:50:46;;;;;;;12.45;2.78;;;;;;;5.85;66.75;102371.25;4994486;28;20027;-87
2022/01/30 06:53:11;;;;;;;10.57;2.78;;;;;;;5.91;66.77;102366.78;4994396;28;20037;-87
2022/01/30 06:55:42;;;;;;;16.52;2.42;;;;;;;5.80;67.54;102367.84;4994298;28;20022;-87
2022/01/30 06:58:14;;;;;;;13.35;2.50;;;;;;;5.82;67.46;102379.13;4987232;28;20417;-87
2022/01/30 07:00:39;;;;;;;10.10;2.50;;;;;;;6.04;67.46;102371.81;4975034;28;20018;-87
2022/01/30 07:03:05;;;;;;;12.05;2.40;;;;;;;6.16;67.02;102376.81;4975665;28;20038;-87
2022/01/30 07:05:30;;;;;;;12.60;3.08;;;;;;;5.94;67.31;102366.75;4994152;28;20026;-87
2022/01/30 07:07:55;;;;;;;14.07;3.55;;;;;;;5.92;67.68;102371.13;4994295;28;20026;-87
2022/01/30 07:10:21;;;;;;;9.43;3.15;;;;;;;5.95;67.98;102368.47;4993949;28;20370;-87
2022/01/30 07:12:47;;;;;;;6.70;1.88;;;;;;;6.16;68.22;102376.81;4993722;28;20113;-87
2022/01/30 07:15:14;;;;;;;15.55;3.17;;;;;;;6.20;67.62;102383.72;4994002;28;20118;-87
2022/01/30 07:17:39;;;;;;;13.07;3.22;;;;;;;6.28;67.51;102367.91;4994111;28;20022;-87
2022/01/30 07:20:05;;;;;;;7.95;1.92;;;;;;;6.47;66.19;102364.06;4994149;28;20033;-87
2022/01/30 07:22:31;;;;;;;10.07;2.28;;;;;;;6.41;66.47;102374.63;4988788;28;20109;-87
2022/01/30 07:24:57;;;;;;;13.80;2.50;;;;;;;6.42;67.03;102384.19;4974159;28;20061;-87
2022/01/30 07:27:22;;;;;;;11.85;2.83;;;;;;;6.50;66.64;102365.75;4993090;28;20026;-87
2022/01/30 07:29:48;;;;;;;13.40;2.58;;;;;;;6.51;66.96;102370.06;4991721;28;20076;-87
2022/01/30 07:32:13;;;;;;;12.30;2.35;;;;;;;6.52;66.49;102370.06;4993502;28;20030;-88
2022/01/30 07:34:39;;;;;;;10.75;3.45;;;;;;;6.49;66.68;102362.28;4993253;28;20050;-87
2022/01/30 07:37:05;;;;;;;15.65;3.05;;;;;;;6.52;65.99;102370.06;4991651;28;20037;-87
2022/01/30 07:39:31;;;;;;;14.35;2.90;;;;;;;6.48;66.00;102377.97;4993377;28;20034;-87
2022/01/30 07:41:58;;;;;;;15.93;1.95;;;;;;;6.43;66.26;102372.84;4992713;28;20033;-87
2022/01/30 07:44:24;;;;;;;8.93;1.80;;;;;;;6.37;66.60;102379.94;4993456;28;20026;-87
2022/01/30 07:46:49;;;;;;;10.50;2.20;;;;;;;6.33;66.44;102384.34;5003618;28;20118;-87
2022/01/30 07:49:15;;;;;;;11.05;2.13;;;;;;;6.38;66.39;102371.19;4983167;28;20027;-87
2022/01/30 07:51:40;;;;;;;10.45;2.15;;;;;;;6.34;65.64;102379.09;4990093;28;20106;-88
2022/01/30 07:54:06;;;;;;;15.50;2.65;;;;;;;6.24;65.47;102368.84;4993783;28;20030;-87
2022/01/30 07:56:31;;;;;;;16.48;2.13;;;;;;;6.18;66.50;102364.63;4991516;28;20030;-87
2022/01/30 07:58:57;;;;;;;11.90;2.35;;;;;;;6.08;66.47;102369.16;4991712;28;20037;-90
2022/01/30 08:01:22;;;;;;;13.30;2.42;;;;;;;6.22;66.69;102378.44;4989407;28;20030;-89
2022/01/30 08:03:48;;;;;;;10.95;2.90;;;;;;;6.25;66.20;102367.97;4991018;28;20109;-89
2022/01/30 08:06:14;;;;;;;9.02;2.70;;;;;;;6.02;65.85;102368.38;4991773;28;20081;-88
2022/01/30 08:08:39;;;;;;;6.90;2.40;;;;;;;6.04;66.43;102379.63;4991171;28;20061;-89
2022/01/30 08:11:07;;;;;;;10.25;2.38;;;;;;;6.07;66.66;102385.66;4992614;28;20026;-87
2022/01/30 08:13:32;;;;;;;9.00;2.65;;;;;;;6.08;66.02;102376.97;4985019;28;20037;-88
2022/01/30 08:15:58;;;;;;;11.93;2.95;;;;;;;6.10;66.37;102380.41;4984146;28;20027;-89
2022/01/30 08:18:23;;;;;;;14.98;3.25;;;;;;;6.17;65.97;102388.97;4981374;28;20472;-88
2022/01/30 08:20:49;;;;;;;19.75;3.80;;;;;;;6.11;66.35;102378.66;4992578;28;20026;-89
2022/01/30 08:23:17;;;;;;;13.82;2.45;;;;;;;6.08;65.75;102394.34;4992327;28;20022;-88
2022/01/30 08:25:43;;;;;;;9.10;2.03;;;;;;;6.21;66.53;102392.41;4991855;28;20172;-87
2022/01/30 08:28:08;;;;;;;17.33;4.43;;;;;;;6.22;66.26;102381.94;4992215;28;20173;-88
2022/01/30 08:30:34;;;;;;;21.67;3.25;;;;;;;6.23;66.94;102388.00;4991490;28;20113;-88
2022/01/30 08:33:00;;;;;;;8.85;2.28;;;;;;;6.34;66.39;102380.84;4992439;28;20497;-88
2022/01/30 08:35:26;;;;;;;9.18;2.05;;;;;;;6.38;66.05;102377.31;4992489;28;20101;-88
2022/01/30 08:37:52;;;;;;;16.70;3.15;;;;;;;6.44;65.92;102377.19;4992512;28;20034;-89
2022/01/30 08:40:19;;;;;;;12.48;2.75;;;;;;;6.47;65.82;102371.03;4994167;28;20516;-88
2022/01/30 08:42:47;;;;;;;15.43;2.72;;;;;;;6.65;66.42;102375.88;4996105;28;20041;-88
2022/01/30 08:45:14;;;;;;;10.00;2.53;;;;;;;6.87;66.35;102378.94;4992214;28;20030;-88
2022/01/30 08:47:44;;;;;;;11.65;2.65;;;;;;;7.03;65.91;102371.63;4996217;28;20113;-88
2022/01/30 08:50:11;;;;;;;14.13;3.55;;;;;;;7.29;66.58;102372.81;4996016;28;20025;-87
2022/01/30 08:52:37;;;;;;;18.95;3.25;;;;;;;7.24;65.72;102358.97;4991815;28;20033;-89
2022/01/30 08:55:05;;;;;;;15.30;2.70;;;;;;;7.15;65.55;102357.44;4995308;28;20042;-89
2022/01/30 08:57:30;;;;;;;12.55;2.45;;;;;;;7.13;66.14;102362.69;4993473;28;20080;-88
2022/01/30 08:59:58;;;;;;;10.75;2.75;;;;;;;7.33;65.82;102358.78;4987369;28;20026;-88
2022/01/30 09:02:24;;;;;;;8.93;2.55;;;;;;;7.62;65.24;102351.97;4987990;28;20465;-89
2022/01/30 09:04:49;;;;;;;13.60;2.40;;;;;;;8.03;64.32;102357.94;4986571;28;20038;-90
2022/01/30 09:07:15;;;;;;;14.10;2.20;;;;;;;8.05;64.56;102369.22;4992653;28;20089;-89
2022/01/30 09:09:40;;;;;;;12.40;3.58;;;;;;;8.08;65.23;102356.06;4995071;28;20045;-90
2022/01/30 09:12:06;;;;;;;15.18;2.10;;;;;;;8.30;64.57;102349.34;4994860;28;20022;-89
2022/01/30 09:14:32;;;;;;;6.07;2.80;;;;;;;8.67;64.00;102355.34;4983289;28;20046;-89
2022/01/30 09:16:58;;;;;;;13.27;2.35;;;;;;;9.17;62.89;102341.66;4992588;28;20026;-88
2022/01/30 09:19:23;;;;;;;10.80;1.98;;;;;;;9.59;62.38;102341.16;5007918;28;20034;-86
2022/01/30 09:21:51;;;;;;;11.35;2.03;;;;;;;9.96;61.04;102343.41;5014778;28;20033;-87
2022/01/30 09:24:16;;;;;;;7.07;2.20;;;;;;;10.57;60.68;102345.66;5013653;28;20096;-87
2022/01/30 09:26:42;;;;;;;9.73;2.50;;;;;;;10.76;61.21;102351.06;4999224;28;20038;-87
2022/01/30 09:29:08;;;;;;;13.65;2.83;;;;;;;11.27;58.78;102352.59;5000758;28;20026;-87
2022/01/30 09:31:34;;;;;;;14.85;2.65;;;;;;;11.97;57.15;102353.28;5009458;28;21216;-88
2022/01/30 09:33:59;;;;;;;15.00;2.97;;;;;;;12.53;56.75;102346.44;5005495;28;20050;-86
2022/01/30 09:36:24;;;;;;;14.38;2.70;;;;;;;12.72;55.76;102350.84;4998702;28;20026;-88
2022/01/30 09:38:50;;;;;;;16.13;2.50;;;;;;;12.94;55.14;102346.31;4998065;28;20056;-88
2022/01/30 09:41:16;;;;;;;14.10;2.90;;;;;;;13.15;54.57;102341.81;4996242;28;20022;-88
2022/01/30 09:43:44;;;;;;;15.88;4.13;;;;;;;13.07;54.10;102351.84;4985837;28;20027;-89
2022/01/30 09:46:10;;;;;;;17.02;3.85;;;;;;;13.33;53.62;102345.38;4995493;28;20061;-88
2022/01/30 09:48:37;;;;;;;15.63;3.58;;;;;;;13.80;52.70;102347.44;4990082;28;20489;-89
2022/01/30 09:51:06;;;;;;;11.68;3.63;;;;;;;13.77;51.88;102346.75;4994005;28;20026;-90
2022/01/30 09:53:33;;;;;;;11.43;4.07;;;;;;;14.03;51.30;102350.69;4995954;28;20427;-91
2022/01/30 09:55:58;;;;;;;19.02;3.90;;;;;;;14.52;50.37;102342.81;4995344;28;20044;-89
2022/01/30 09:58:23;;;;;;;11.77;4.15;;;;;;;14.98;49.41;102350.91;4994979;28;20134;-89
2022/01/30 10:00:49;;;;;;;11.95;3.00;;;;;;;15.26;49.85;102352.00;4993414;28;20027;-89
2022/01/30 10:03:28;;;;;;;9.07;3.40;;;;;;;15.53;49.33;102351.38;4983330;28;20029;-89
2022/01/30 10:06:13;;;;;;;10.65;3.83;;;;;;;15.69;47.57;102344.22;4992198;28;20041;-92
2022/01/30 10:08:44;;;;;;;16.77;4.70;;;;;;;16.14;46.74;102346.94;4989817;28;20109;-90
2022/01/30 10:11:31;;;;;;;9.45;3.08;;;;;;;16.69;46.59;102340.00;4994716;28;20481;-93
2022/01/30 10:14:08;;;;;;;11.63;3.22;;;;;;;17.48;45.46;102328.69;4989152;28;20034;-94
2022/01/30 10:16:53;;;;;;;13.73;3.10;;;;;;;18.12;43.75;102341.25;4988633;28;20116;-90
2022/01/30 10:19:21;;;;;;;11.50;2.80;;;;;;;18.77;42.60;102335.72;4993533;28;20081;-90
2022/01/30 10:22:03;;;;;;;10.68;3.20;;;;;;;19.00;41.73;102342.09;4992749;28;20046;-91
2022/01/30 10:24:29;;;;;;;9.85;2.90;;;;;;;19.61;41.29;102341.16;4985474;28;20165;-92
2022/01/30 10:26:59;;;;;;;12.07;2.88;;;;;;;20.24;39.98;102343.47;4990451;28;20541;-91
2022/01/30 10:29:31;;;;;;;18.33;4.70;;;;;;;19.95;39.00;102341.28;4991860;28;20022;-92
2022/01/30 10:32:00;;;;;;;;;;;;;;;20.19;38.58;102336.69;4982072;28;20030;-91
2022/01/30 10:34:29;;;;;;;11.50;3.78;;;;;;;20.61;38.24;102328.09;4986552;28;19918;-91
2022/01/30 10:37:15;;;;;;;10.25;2.70;;;;;;;21.07;37.18;102332.41;4986391;28;20109;-91
2022/01/30 10:39:57;;;;;;;11.43;3.08;;;;;;;21.35;35.78;102330.09;4992738;28;20484;-91
2022/01/30 10:42:47;;;;;;;19.05;4.78;;;;;;;20.79;37.13;102339.97;4993230;28;20141;-91
2022/01/30 10:45:15;;;;;;;13.77;3.40;;;;;;;21.22;36.35;102337.44;4993042;28;20066;-92
2022/01/30 10:47:42;;;;;;;14.02;3.60;;;;;;;21.50;36.30;102319.97;4994182;28;20097;-92
2022/01/30 10:50:12;;;;;;;16.10;6.28;;;;;;;21.41;35.68;102313.56;4994362;28;20033;-92
2022/01/30 10:53:36;;;;;;;13.55;3.85;;;;;;;21.52;35.27;102320.69;4994083;28;20030;-91
2022/01/30 10:56:01;;;;;;;7.88;2.78;;;;;;;21.81;35.07;102314.69;4983117;28;20049;-92
2022/01/30 10:58:27;;;;;;;11.40;3.70;;;;;;;22.22;34.99;102308.44;4992641;28;20022;-92
2022/01/30 11:00:54;;;;;;;10.18;2.95;;;;;;;22.03;34.29;102297.66;4992853;28;20026;-92
2022/01/30 11:03:44;;;;;;;13.48;3.15;;;;;;;22.50;33.92;102301.53;4993730;28;20022;-92
2022/01/30 11:06:13;;;;;;;11.90;3.13;;;;;;;22.75;33.51;102300.19;4993886;28;20512;-92
2022/01/30 11:08:44;;;;;;;13.05;3.88;;;;;;;22.43;33.13;102289.66;4994093;28;20129;-92
2022/01/30 11:11:31;;;;;;;9.60;3.38;;;;;;;22.71;32.93;102281.81;4994153;28;20544;-92
2022/01/30 11:19:15;;;;;;;15.20;3.15;;;;;;;22.48;33.51;102287.44;4993849;28;20080;-91
2022/01/30 11:21:41;;;;;;;7.68;2.97;;;;;;;22.51;33.20;102270.22;4993796;28;20034;-91
2022/01/30 11:24:09;;;;;;;13.30;4.22;;;;;;;22.22;33.11;102265.63;4993428;28;20023;-90
2022/01/30 11:26:35;;;;;;;11.93;2.70;;;;;;;22.56;33.49;102268.84;4993803;28;20030;-90
2022/01/30 11:29:01;;;;;;;13.02;3.35;;;;;;;22.30;33.58;102256.97;4993494;28;20033;-91
2022/01/30 11:31:27;;;;;;;11.00;3.40;;;;;;;22.24;33.42;102247.66;4993286;28;20503;-90
2022/01/30 11:33:54;;;;;;;9.90;3.03;;;;;;;22.25;33.60;102243.97;4993585;28;20053;-91
2022/01/30 11:36:23;;;;;;;11.15;2.97;;;;;;;22.09;33.47;102246.28;4993305;28;20455;-91
2022/01/30 11:38:49;;;;;;;7.65;2.42;;;;;;;21.77;34.32;102240.09;4993708;28;20059;-91
2022/01/30 11:41:17;;;;;;;13.98;3.17;;;;;;;21.65;34.76;102234.97;4993191;28;20029;-91
2022/01/30 11:44:17;;;;;;;10.13;2.65;;;;;;;21.72;33.80;102228.97;4993118;28;20081;-91
2022/01/30 11:46:43;;;;;;;12.45;3.70;;;;;;;21.61;33.91;102213.00;4994213;28;20345;-92
2022/01/30 11:49:13;;;;;;;7.57;2.22;;;;;;;21.67;34.57;102216.97;4993168;28;20082;-91
2022/01/30 11:52:00;;;;;;;10.10;2.83;;;;;;;21.84;33.84;102204.78;4993125;28;20033;-91
2022/01/30 11:54:48;;;;;;;9.27;2.63;;;;;;;21.81;33.35;102197.91;4993014;28;20050;-91
2022/01/30 11:57:19;;;;;;;12.00;2.88;;;;;;;21.29;33.53;102189.84;4993271;28;20030;-91
2022/01/30 11:59:49;;;;;;;9.85;2.42;;;;;;;21.64;33.19;102179.81;4992852;28;20030;-91
2022/01/30 12:02:25;;;;;;;11.05;2.53;;;;;;;21.69;33.58;102174.91;4992651;28;20084;-91
2022/01/30 12:05:04;;;;;;;6.25;1.92;;;;;;;21.66;32.78;102169.81;4992997;28;20054;-91
2022/01/30 12:07:39;;;;;;;7.72;2.45;;;;;;;21.76;33.23;102158.19;4992839;28;20031;-91
2022/01/30 12:10:30;;;;;;;9.88;2.40;;;;;;;21.41;32.89;102147.88;4992835;28;20086;-91
2022/01/30 12:12:59;;;;;;;9.18;2.83;;;;;;;21.03;33.12;102143.13;4992726;28;20026;-91
2022/01/30 12:15:42;;;;;;;10.50;2.95;;;;;;;20.55;33.82;102131.94;4992195;28;20038;-90
2022/01/30 12:18:12;;;;;;;11.00;3.00;;;;;;;20.90;34.25;102130.84;4992739;28;20026;-90
2022/01/30 12:21:09;;;;;;;7.57;2.97;;;;;;;20.62;33.92;102131.44;4992869;28;20036;-91
2022/01/30 12:23:36;;;;;;;12.05;3.03;;;;;;;20.59;33.90;102125.38;4991830;28;20022;-90
2022/01/30 12:26:05;;;;;;;11.63;2.97;;;;;;;20.47;34.29;102110.38;4993006;28;20388;-91
2022/01/30 12:28:51;;;;;;;10.00;2.50;;;;;;;20.76;34.70;102109.81;4993166;28;20030;-91
2022/01/30 12:31:26;;;;;;;12.38;2.50;;;;;;;20.34;34.41;102099.91;4993112;28;20061;-91
2022/01/30 12:34:20;;;;;;;11.32;2.60;;;;;;;19.88;34.68;102090.31;4993242;28;20397;-90
2022/01/30 12:36:53;;;;;;;9.40;2.15;;;;;;;20.11;34.34;102076.94;4988442;28;20496;-90